Time;durP1;ratioP1;P1;durP2;ratioP2;P2;SDS_P1;SDS_P2;PMS_P1;PMS_P2;Temp;Humidity;BMP_temperature;BMP_pressure;BME280_temperature;BME280_humidity;BME280_pressure;Samples;Min_cycle;Max_cycle;Signal;HPM_P1;HPM_P2
2022/04/14 00:00:35;;;;;;;12.32;5.97;;;11.70;99.90;;;;;;4996808;28;20056;-69
2022/04/14 00:03:01;;;;;;;10.68;5.60;;;11.70;99.90;;;;;;4996254;28;20064;-69
2022/04/14 00:05:27;;;;;;;10.85;6.28;;;11.70;99.90;;;;;;4998163;28;20050;-68
2022/04/14 00:07:52;;;;;;;13.07;6.32;;;11.60;99.90;;;;;;4997237;28;20046;-68
2022/04/14 00:10:18;;;;;;;12.63;5.80;;;11.60;99.90;;;;;;4997299;28;20046;-69
2022/04/14 00:12:45;;;;;;;11.63;6.25;;;11.70;99.90;;;;;;4997276;28;20089;-68
2022/04/14 00:15:11;;;;;;;11.60;6.50;;;11.60;99.90;;;;;;4997210;28;20054;-68
2022/04/14 00:17:37;;;;;;;13.38;5.68;;;11.60;99.90;;;;;;4994929;28;20142;-68
2022/04/14 00:20:06;;;;;;;9.00;5.63;;;11.60;99.90;;;;;;4997076;28;20046;-68
2022/04/14 00:22:33;;;;;;;10.52;5.82;;;11.70;99.90;;;;;;4996985;28;20130;-68
2022/04/14 00:24:59;;;;;;;12.93;6.13;;;11.60;99.90;;;;;;4996072;28;20064;-68
2022/04/14 00:27:25;;;;;;;8.52;5.93;;;11.60;99.90;;;;;;4995833;28;20050;-69
2022/04/14 00:29:51;;;;;;;13.10;6.18;;;11.60;99.90;;;;;;4996497;28;20092;-68
2022/04/14 00:32:17;;;;;;;12.25;7.00;;;11.60;99.90;;;;;;4996841;28;20049;-68
2022/04/14 00:34:43;;;;;;;11.70;6.43;;;11.60;99.90;;;;;;4995811;28;20077;-68
2022/04/14 00:37:10;;;;;;;10.85;5.38;;;11.60;99.90;;;;;;4995725;28;20105;-68
2022/04/14 00:39:36;;;;;;;7.95;6.03;;;11.60;99.90;;;;;;4996807;28;20042;-68
2022/04/14 00:42:09;;;;;;;10.75;5.57;;;11.50;99.90;;;;;;4996669;28;20046;-68
2022/04/14 00:44:35;;;;;;;13.82;5.97;;;11.50;99.90;;;;;;4996732;28;20189;-69
2022/04/14 00:47:01;;;;;;;8.18;5.20;;;11.50;99.90;;;;;;4979355;28;20550;-68
2022/04/14 00:49:27;;;;;;;8.75;5.30;;;11.40;99.90;;;;;;4996481;28;20055;-68
2022/04/14 00:51:52;;;;;;;11.70;5.45;;;11.50;99.90;;;;;;4996936;28;20447;-68
2022/04/14 00:54:18;;;;;;;8.48;4.75;;;11.40;99.90;;;;;;4996955;28;20050;-68
2022/04/14 00:56:44;;;;;;;9.70;5.07;;;11.40;99.90;;;;;;4980041;28;20112;-68
2022/04/14 00:59:09;;;;;;;8.27;5.32;;;11.40;99.90;;;;;;4995257;28;20042;-68
2022/04/14 01:01:35;;;;;;;7.93;4.65;;;11.40;99.90;;;;;;4996927;28;20056;-68
2022/04/14 01:04:03;;;;;;;9.82;4.70;;;11.40;99.90;;;;;;4995320;28;20042;-69
2022/04/14 01:06:29;;;;;;;8.35;4.20;;;11.40;99.90;;;;;;4995264;28;20054;-69
2022/04/14 01:11:40;;;;;;;8.18;5.00;;;11.30;99.90;;;;;;4995236;28;20065;-69
2022/04/14 01:14:06;;;;;;;8.70;5.18;;;11.30;99.90;;;;;;4996673;28;20092;-68
2022/04/14 01:16:32;;;;;;;9.55;5.05;;;11.30;99.90;;;;;;4996885;28;20559;-69
2022/04/14 01:18:58;;;;;;;9.00;5.22;;;11.30;99.90;;;;;;4995079;28;20046;-68
2022/04/14 01:21:30;;;;;;;9.65;5.47;;;11.30;99.90;;;;;;4996476;28;20042;-69
2022/04/14 01:23:55;;;;;;;7.60;5.10;;;11.30;99.90;;;;;;4995814;28;20387;-69
2022/04/14 01:26:21;;;;;;;8.43;5.03;;;11.30;99.90;;;;;;4995933;28;20050;-69
2022/04/14 01:28:47;;;;;;;8.50;5.35;;;11.30;99.90;;;;;;4994511;28;20050;-69
2022/04/14 01:31:13;;;;;;;7.95;5.13;;;11.30;99.90;;;;;;4995776;28;20125;-69
2022/04/14 01:33:38;;;;;;;8.55;5.70;;;11.30;99.90;;;;;;4995728;28;20050;-69
2022/04/14 01:36:05;;;;;;;11.30;5.57;;;11.20;99.90;;;;;;4978863;28;20093;-69
2022/04/14 01:38:31;;;;;;;9.57;5.55;;;11.20;99.90;;;;;;4994685;28;20089;-68
2022/04/14 01:40:57;;;;;;;9.57;5.43;;;11.20;99.90;;;;;;4994387;28;20545;-68
2022/04/14 01:43:22;;;;;;;7.15;5.00;;;11.20;99.90;;;;;;4995499;28;20045;-69
2022/04/14 01:45:50;;;;;;;10.38;5.40;;;11.20;99.90;;;;;;4995454;28;20042;-68
2022/04/14 01:48:17;;;;;;;10.00;5.60;;;11.20;99.90;;;;;;4995362;28;20066;-68
2022/04/14 01:50:43;;;;;;;8.85;5.55;;;11.20;99.90;;;;;;4995370;28;20054;-68
2022/04/14 01:53:09;;;;;;;7.60;5.63;;;11.10;99.90;;;;;;4994280;28;20042;-68
2022/04/14 01:55:34;;;;;;;10.93;6.05;;;11.10;99.90;;;;;;4995864;28;20128;-68
2022/04/14 01:58:00;;;;;;;10.90;6.60;;;11.10;99.90;;;;;;4995505;28;20060;-68
2022/04/14 02:00:26;;;;;;;10.68;6.50;;;11.10;99.90;;;;;;4995734;28;20359;-68
2022/04/14 02:02:51;;;;;;;9.25;6.00;;;11.00;99.90;;;;;;4977970;28;20085;-68
2022/04/14 02:05:17;;;;;;;11.60;7.18;;;11.00;99.90;;;;;;4994522;28;20133;-68
2022/04/14 02:07:43;;;;;;;9.95;6.55;;;11.00;99.90;;;;;;4995578;28;20124;-68
2022/04/14 02:10:08;;;;;;;13.55;8.60;;;11.00;99.90;;;;;;4995121;28;20082;-68
2022/04/14 02:12:34;;;;;;;12.45;7.13;;;11.10;99.90;;;;;;4995005;28;20461;-68
2022/04/14 02:15:00;;;;;;;13.50;8.38;;;11.00;99.90;;;;;;4993539;28;20549;-68
2022/04/14 02:17:26;;;;;;;14.55;8.13;;;11.10;99.90;;;;;;4995225;28;20111;-68
2022/04/14 02:19:52;;;;;;;11.40;7.63;;;11.10;99.90;;;;;;4993726;28;20042;-68
2022/04/14 02:22:18;;;;;;;12.75;8.32;;;11.10;99.90;;;;;;4994407;28;20057;-68
2022/04/14 02:24:44;;;;;;;12.98;7.90;;;11.10;99.90;;;;;;4995369;28;20504;-68
2022/04/14 02:27:10;;;;;;;14.32;8.40;;;11.10;99.90;;;;;;4995884;28;20094;-68
2022/04/14 02:29:36;;;;;;;12.20;8.32;;;11.10;99.90;;;;;;4994732;28;20053;-69
2022/04/14 02:32:01;;;;;;;12.18;8.85;;;11.10;99.90;;;;;;4994530;28;20463;-68
2022/04/14 02:34:27;;;;;;;13.25;8.60;;;11.10;99.90;;;;;;4993464;28;20050;-68
2022/04/14 02:36:54;;;;;;;13.95;8.85;;;11.00;99.90;;;;;;4994026;28;20136;-68
2022/04/14 02:39:20;;;;;;;14.30;8.30;;;11.00;99.90;;;;;;4992578;28;20490;-68
2022/04/14 02:41:46;;;;;;;14.50;8.70;;;11.00;99.90;;;;;;4993617;28;20064;-68
2022/04/14 02:44:12;;;;;;;13.20;8.68;;;11.00;99.90;;;;;;4993364;28;20124;-69
2022/04/14 02:46:37;;;;;;;14.30;8.80;;;11.00;99.90;;;;;;4994521;28;20046;-69
2022/04/14 02:49:03;;;;;;;15.32;8.90;;;11.00;99.90;;;;;;4994730;28;20092;-68
2022/04/14 02:51:29;;;;;;;14.00;9.77;;;10.90;99.90;;;;;;4993531;28;20506;-69
2022/04/14 02:53:54;;;;;;;15.50;9.80;;;10.90;99.90;;;;;;4994915;28;20474;-69
2022/04/14 02:56:20;;;;;;;15.18;9.20;;;10.90;99.90;;;;;;4994086;28;20086;-69
2022/04/14 02:58:46;;;;;;;16.30;9.35;;;10.80;99.90;;;;;;4994373;28;20042;-68
2022/04/14 03:01:12;;;;;;;14.20;9.73;;;10.80;99.90;;;;;;4977222;28;20090;-68
2022/04/14 03:03:37;;;;;;;15.05;9.75;;;10.80;99.90;;;;;;4994615;28;20051;-68
2022/04/14 03:06:03;;;;;;;17.10;10.63;;;10.80;99.90;;;;;;4994290;28;20533;-69
2022/04/14 03:08:29;;;;;;;16.52;9.27;;;10.70;99.90;;;;;;4994198;28;20078;-68
2022/04/14 03:10:55;;;;;;;16.65;9.93;;;10.70;99.90;;;;;;4994823;28;20081;-68
2022/04/14 03:13:21;;;;;;;15.85;9.75;;;10.70;99.90;;;;;;4994238;28;20129;-68
2022/04/14 03:15:49;;;;;;;17.02;10.05;;;10.70;99.90;;;;;;4994169;28;20046;-68
2022/04/14 03:18:15;;;;;;;15.88;10.07;;;10.60;99.90;;;;;;4994182;28;20050;-68
2022/04/14 03:20:41;;;;;;;15.95;9.77;;;10.60;99.90;;;;;;4994221;28;20449;-68
2022/04/14 03:23:07;;;;;;;14.13;8.90;;;10.50;99.90;;;;;;4992809;28;20088;-68
2022/04/14 03:25:33;;;;;;;15.65;10.13;;;10.50;99.90;;;;;;4994043;28;20058;-68
2022/04/14 03:27:58;;;;;;;18.88;10.52;;;10.40;99.90;;;;;;4994070;28;20148;-68
2022/04/14 03:30:24;;;;;;;16.13;10.68;;;10.40;99.90;;;;;;4976967;28;20046;-68
2022/04/14 03:32:50;;;;;;;15.93;10.32;;;10.40;99.90;;;;;;4993385;28;20050;-68
2022/04/14 03:35:16;;;;;;;18.02;10.23;;;10.40;99.90;;;;;;4994091;28;20046;-68
2022/04/14 03:37:42;;;;;;;18.80;10.95;;;10.30;99.90;;;;;;4994047;28;20144;-68
2022/04/14 03:40:08;;;;;;;14.80;10.43;;;10.30;99.90;;;;;;4993985;28;20046;-68
2022/04/14 03:42:35;;;;;;;17.13;10.90;;;10.30;99.90;;;;;;4993653;28;20573;-68
2022/04/14 03:45:02;;;;;;;16.40;10.70;;;10.30;99.90;;;;;;4993979;28;20121;-68
2022/04/14 03:47:28;;;;;;;18.75;11.15;;;10.20;99.90;;;;;;4992483;28;20569;-68
2022/04/14 03:49:53;;;;;;;14.23;10.50;;;10.10;99.90;;;;;;4994379;28;20126;-68
2022/04/14 03:52:20;;;;;;;18.85;11.18;;;10.10;99.90;;;;;;4997506;28;20053;-68
2022/04/14 03:54:46;;;;;;;20.27;11.50;;;10.20;99.90;;;;;;4997566;28;20104;-68
2022/04/14 03:57:11;;;;;;;20.30;11.13;;;10.00;99.90;;;;;;4996397;28;20050;-68
2022/04/14 03:59:37;;;;;;;19.35;11.63;;;10.00;99.90;;;;;;4996401;28;20113;-68
2022/04/14 04:02:04;;;;;;;18.80;11.88;;;10.00;99.90;;;;;;4997673;28;20401;-68
2022/04/14 04:04:31;;;;;;;17.88;11.73;;;10.00;99.90;;;;;;4997422;28;20508;-68
2022/04/14 04:06:57;;;;;;;17.17;11.57;;;10.00;99.90;;;;;;4997061;28;20498;-69
2022/04/14 04:09:23;;;;;;;21.58;12.05;;;9.90;99.90;;;;;;4997259;28;20049;-68
2022/04/14 04:11:48;;;;;;;20.05;12.45;;;10.00;99.90;;;;;;4996116;28;20042;-68
2022/04/14 04:14:14;;;;;;;22.52;13.27;;;9.90;99.90;;;;;;4995970;28;20050;-68
2022/04/14 04:16:40;;;;;;;20.48;12.15;;;9.90;99.90;;;;;;4997987;28;20049;-68
2022/04/14 04:19:05;;;;;;;20.67;12.30;;;9.90;99.90;;;;;;4997149;28;20038;-68
2022/04/14 04:21:32;;;;;;;18.00;11.80;;;9.80;99.90;;;;;;4997132;28;20398;-68
2022/04/14 04:23:58;;;;;;;18.15;13.10;;;9.80;99.90;;;;;;4995799;28;20046;-68
2022/04/14 04:26:24;;;;;;;19.98;12.70;;;9.80;99.90;;;;;;4995618;28;20517;-68
2022/04/14 04:28:49;;;;;;;19.90;12.70;;;9.70;99.90;;;;;;4996104;28;20061;-68
2022/04/14 04:31:15;;;;;;;22.60;12.52;;;9.70;99.90;;;;;;4996942;28;20038;-68
2022/04/14 04:33:41;;;;;;;21.38;11.70;;;9.60;99.90;;;;;;4996944;28;20126;-68
2022/04/14 04:36:07;;;;;;;17.25;12.40;;;9.60;99.90;;;;;;4996174;28;20348;-68
2022/04/14 04:38:33;;;;;;;18.05;12.05;;;9.60;99.90;;;;;;4996772;28;20054;-69
2022/04/14 04:40:59;;;;;;;17.30;10.80;;;9.50;99.90;;;;;;4997326;28;20050;-68
2022/04/14 04:43:28;;;;;;;21.00;12.02;;;9.50;99.90;;;;;;4995739;28;20081;-68
2022/04/14 04:45:53;;;;;;;18.73;11.77;;;9.50;99.90;;;;;;4997201;28;20053;-68
2022/04/14 04:48:19;;;;;;;19.98;12.75;;;9.50;99.90;;;;;;4996751;28;20039;-68
2022/04/14 04:50:45;;;;;;;23.65;13.75;;;9.40;99.90;;;;;;4996562;28;20066;-68
2022/04/14 04:53:11;;;;;;;20.13;12.27;;;9.40;99.90;;;;;;4996412;28;20129;-67
2022/04/14 04:55:36;;;;;;;22.08;13.10;;;9.60;99.90;;;;;;4996448;28;20093;-67
2022/04/14 04:58:02;;;;;;;19.42;12.80;;;9.40;99.90;;;;;;4995133;28;20054;-68
2022/04/14 05:00:28;;;;;;;21.65;13.52;;;9.40;99.90;;;;;;4995454;28;20038;-68
2022/04/14 05:02:55;;;;;;;19.00;12.63;;;9.30;99.90;;;;;;4994656;28;20393;-68
2022/04/14 05:05:22;;;;;;;20.40;12.60;;;9.30;99.90;;;;;;4995116;28;20042;-68
2022/04/14 05:07:48;;;;;;;20.98;12.73;;;9.30;99.90;;;;;;4996972;28;20069;-67
2022/04/14 05:10:14;;;;;;;19.83;12.95;;;9.30;99.90;;;;;;4995075;28;20062;-67
2022/04/14 05:12:40;;;;;;;18.83;12.27;;;9.20;99.90;;;;;;4995767;28;20057;-67
2022/04/14 05:15:06;;;;;;;23.55;13.70;;;9.20;99.90;;;;;;4995798;28;20502;-69
2022/04/14 05:17:32;;;;;;;23.52;13.95;;;9.20;99.90;;;;;;4996345;28;20049;-68
2022/04/14 05:19:57;;;;;;;22.13;13.48;;;9.20;99.90;;;;;;4996017;28;20039;-67
2022/04/14 05:22:23;;;;;;;23.58;14.35;;;9.20;99.90;;;;;;4995847;28;20051;-67
2022/04/14 05:24:49;;;;;;;19.67;13.68;;;9.20;99.90;;;;;;4994864;28;20053;-68
2022/04/14 05:27:14;;;;;;;21.20;14.23;;;9.10;99.90;;;;;;4978216;28;20080;-68
2022/04/14 05:29:40;;;;;;;20.42;13.57;;;9.10;99.90;;;;;;4995607;28;20136;-67
2022/04/14 05:32:06;;;;;;;22.38;14.13;;;9.10;99.90;;;;;;4995734;28;20050;-68
2022/04/14 05:34:33;;;;;;;21.00;13.68;;;9.10;99.90;;;;;;4994404;28;20134;-68
2022/04/14 05:36:58;;;;;;;24.05;14.95;;;9.10;99.90;;;;;;4995500;28;20054;-68
2022/04/14 05:39:24;;;;;;;23.50;15.32;;;9.10;99.90;;;;;;4995223;28;20116;-67
2022/04/14 05:41:50;;;;;;;26.52;15.95;;;9.20;99.90;;;;;;4995120;28;20046;-68
2022/04/14 05:44:17;;;;;;;22.70;14.77;;;9.20;99.90;;;;;;4995453;28;20093;-68
2022/04/14 05:46:42;;;;;;;22.80;15.82;;;9.20;99.90;;;;;;4995287;28;20058;-68
2022/04/14 05:49:08;;;;;;;22.98;15.40;;;9.20;99.90;;;;;;4996057;28;20042;-68
2022/04/14 05:51:34;;;;;;;26.83;16.27;;;9.30;99.90;;;;;;4995548;28;20046;-68
2022/04/14 05:53:59;;;;;;;26.33;15.27;;;9.30;99.90;;;;;;4995085;28;20474;-68
2022/04/14 05:56:25;;;;;;;26.98;15.98;;;9.30;99.90;;;;;;4995136;28;20441;-68
2022/04/14 05:58:53;;;;;;;25.70;16.50;;;9.30;99.90;;;;;;4977731;28;20042;-68
2022/04/14 06:01:19;;;;;;;27.85;16.77;;;9.30;99.90;;;;;;4995084;28;20050;-68
2022/04/14 06:03:45;;;;;;;24.70;15.90;;;9.40;99.90;;;;;;4994074;28;20054;-68
2022/04/14 06:06:13;;;;;;;23.42;16.15;;;9.40;99.90;;;;;;4977828;28;20047;-67
2022/04/14 06:08:38;;;;;;;27.10;17.50;;;9.50;99.90;;;;;;4993652;28;20084;-67
2022/04/14 06:11:05;;;;;;;34.25;21.98;;;9.50;99.90;;;;;;4977744;28;20081;-67
2022/04/14 06:13:31;;;;;;;31.88;19.67;;;9.60;99.90;;;;;;4995001;28;20396;-67
2022/04/14 06:15:57;;;;;;;29.70;18.33;;;9.60;99.90;;;;;;4994089;28;20056;-67
2022/04/14 06:18:23;;;;;;;28.95;18.52;;;9.70;99.90;;;;;;4995313;28;20156;-67
2022/04/14 06:20:50;;;;;;;30.83;19.10;;;9.80;99.90;;;;;;4977504;28;20042;-67
2022/04/14 06:23:16;;;;;;;32.65;18.98;;;9.90;99.90;;;;;;4993390;28;20046;-67
2022/04/14 06:25:45;;;;;;;31.38;20.55;;;9.90;99.90;;;;;;4993720;28;20085;-67
2022/04/14 06:28:11;;;;;;;31.80;19.85;;;10.00;99.90;;;;;;4995219;28;20081;-67
2022/04/14 06:30:36;;;;;;;28.08;18.98;;;10.10;99.90;;;;;;4994824;28;20521;-67
2022/04/14 06:33:03;;;;;;;29.45;19.40;;;10.10;99.90;;;;;;4995084;28;20089;-67
2022/04/14 06:35:30;;;;;;;28.65;19.55;;;10.20;99.90;;;;;;4994537;28;20047;-67
2022/04/14 06:37:56;;;;;;;31.85;20.33;;;10.20;99.90;;;;;;4994469;28;20503;-67
2022/04/14 06:40:22;;;;;;;30.85;20.33;;;10.30;99.90;;;;;;4994420;28;20502;-66
2022/04/14 06:42:49;;;;;;;28.90;20.35;;;10.30;99.90;;;;;;4994156;28;20552;-67
2022/04/14 06:45:15;;;;;;;31.77;20.20;;;10.40;99.90;;;;;;4994312;28;20051;-67
2022/04/14 06:47:41;;;;;;;29.73;20.52;;;10.40;99.90;;;;;;4994388;28;20065;-67
2022/04/14 06:50:07;;;;;;;28.88;19.35;;;10.50;99.90;;;;;;4994255;28;20046;-66
2022/04/14 06:52:33;;;;;;;29.10;18.38;;;10.50;99.90;;;;;;4994147;28;20046;-66
2022/04/14 06:54:59;;;;;;;30.15;18.80;;;10.60;99.90;;;;;;4994247;28;20046;-66
2022/04/14 06:57:26;;;;;;;29.17;18.13;;;10.60;99.90;;;;;;4994203;28;20042;-67
2022/04/14 06:59:51;;;;;;;28.75;17.92;;;10.70;99.90;;;;;;4977008;28;20055;-66
2022/04/14 07:02:17;;;;;;;28.90;18.23;;;10.70;99.90;;;;;;4992947;28;20144;-67
2022/04/14 07:04:43;;;;;;;24.27;17.40;;;10.80;99.90;;;;;;4994120;28;20482;-67
2022/04/14 07:07:08;;;;;;;30.08;17.15;;;10.90;99.90;;;;;;4994718;28;20058;-67
2022/04/14 07:09:34;;;;;;;26.27;15.73;;;10.90;99.90;;;;;;4994055;28;20100;-66
2022/04/14 07:12:01;;;;;;;26.90;18.00;;;11.00;99.90;;;;;;4994100;28;20051;-67
2022/04/14 07:14:30;;;;;;;27.55;18.00;;;11.10;99.90;;;;;;4993973;28;20494;-67
2022/04/14 07:16:59;;;;;;;26.20;17.40;;;11.10;99.90;;;;;;4994029;28;20405;-67
2022/04/14 07:19:25;;;;;;;25.30;16.35;;;11.20;99.90;;;;;;4993973;28;20101;-67
2022/04/14 07:21:51;;;;;;;22.40;15.43;;;11.30;99.90;;;;;;4994131;28;20478;-67
2022/04/14 07:24:17;;;;;;;21.92;15.38;;;11.30;99.90;;;;;;4993469;28;20058;-67
2022/04/14 07:26:43;;;;;;;20.48;13.25;;;11.40;99.90;;;;;;4996582;28;20439;-67
2022/04/14 07:29:09;;;;;;;21.63;13.88;;;11.40;99.90;;;;;;4997984;28;20058;-67
2022/04/14 07:31:36;;;;;;;20.88;14.38;;;11.50;99.90;;;;;;4996911;28;20042;-68
2022/04/14 07:34:03;;;;;;;22.52;13.45;;;11.60;99.90;;;;;;4997054;28;20054;-68
2022/04/14 07:36:29;;;;;;;23.42;13.65;;;11.70;99.90;;;;;;4997958;28;20050;-67
2022/04/14 07:38:54;;;;;;;20.42;13.93;;;11.70;99.90;;;;;;4997900;28;20125;-67
2022/04/14 07:41:20;;;;;;;20.38;13.98;;;11.80;99.90;;;;;;4997906;28;20082;-68
2022/04/14 07:43:46;;;;;;;22.08;13.10;;;11.80;99.90;;;;;;4998094;28;20544;-68
2022/04/14 07:46:12;;;;;;;18.80;11.63;;;11.90;99.90;;;;;;4997375;28;20474;-68
2022/04/14 07:48:37;;;;;;;17.33;11.75;;;11.90;99.90;;;;;;4998185;28;20474;-68
2022/04/14 07:51:03;;;;;;;22.70;13.25;;;12.10;99.90;;;;;;4997313;28;20466;-68
2022/04/14 07:53:30;;;;;;;20.23;13.63;;;12.10;99.90;;;;;;4997218;28;20463;-68
2022/04/14 07:55:56;;;;;;;21.15;14.27;;;12.10;99.90;;;;;;4997243;28;20494;-68
2022/04/14 07:58:21;;;;;;;20.20;13.88;;;12.20;99.90;;;;;;4997485;28;20054;-67
2022/04/14 08:00:50;;;;;;;16.25;10.90;;;12.20;99.90;;;;;;4997970;28;20538;-67
2022/04/14 08:03:16;;;;;;;17.05;12.00;;;12.30;99.90;;;;;;4997579;28;20097;-68
2022/04/14 08:05:44;;;;;;;21.48;12.52;;;12.30;99.90;;;;;;4996091;28;20462;-67
2022/04/14 08:08:11;;;;;;;17.05;11.73;;;12.40;99.90;;;;;;4997108;28;20153;-67
2022/04/14 08:10:38;;;;;;;14.52;11.02;;;12.40;99.90;;;;;;4997019;28;20541;-67
2022/04/14 08:13:04;;;;;;;21.23;12.68;;;12.50;99.90;;;;;;4997058;28;20381;-67
2022/04/14 08:15:31;;;;;;;13.88;10.45;;;12.50;99.90;;;;;;4997208;28;20046;-67
2022/04/14 08:17:57;;;;;;;15.80;11.05;;;12.60;99.90;;;;;;4997719;28;20061;-67
2022/04/14 08:20:23;;;;;;;15.43;10.82;;;12.70;99.90;;;;;;4997156;28;20474;-67
2022/04/14 08:22:54;;;;;;;17.08;11.88;;;12.70;99.90;;;;;;4996977;28;20077;-67
2022/04/14 08:25:25;;;;;;;15.07;11.43;;;12.80;99.90;;;;;;4997886;28;20089;-67
2022/04/14 08:27:52;;;;;;;16.80;11.15;;;12.90;99.90;;;;;;4996831;28;20054;-67
2022/04/14 08:30:19;;;;;;;15.88;11.02;;;12.90;99.90;;;;;;4996101;28;20089;-68
2022/04/14 08:32:46;;;;;;;16.33;11.38;;;13.00;99.90;;;;;;4996690;28;20046;-68
2022/04/14 08:35:14;;;;;;;17.08;10.88;;;13.10;99.90;;;;;;4996218;28;20047;-68
2022/04/14 08:37:40;;;;;;;15.32;10.18;;;13.10;99.90;;;;;;4993862;28;20376;-67
2022/04/14 08:40:09;;;;;;;13.35;10.30;;;13.20;99.90;;;;;;4994953;28;20175;-67
2022/04/14 08:42:43;;;;;;;14.82;11.05;;;13.30;99.90;;;;;;4994680;28;20487;-68
2022/04/14 08:45:12;;;;;;;15.00;11.27;;;13.40;99.90;;;;;;4996039;28;20042;-67
2022/04/14 08:47:39;;;;;;;15.18;10.73;;;13.40;99.90;;;;;;4995615;28;20407;-67
2022/04/14 08:50:12;;;;;;;15.43;11.15;;;13.40;99.90;;;;;;4995405;28;20406;-68
2022/04/14 08:52:39;;;;;;;;;;;13.50;99.90;;;;;;4995112;28;20375;-67
2022/04/14 08:55:07;;;;;;;18.80;12.05;;;13.60;99.90;;;;;;4995513;28;20008;-67
2022/04/14 08:57:35;;;;;;;17.10;11.50;;;13.60;99.90;;;;;;4994736;28;20054;-67
2022/04/14 09:00:02;;;;;;;13.90;9.55;;;13.60;99.90;;;;;;4995047;28;20077;-68
2022/04/14 09:02:28;;;;;;;13.73;9.60;;;13.70;99.90;;;;;;4995303;28;20574;-67
2022/04/14 09:04:56;;;;;;;13.05;9.10;;;13.70;99.90;;;;;;4995751;28;20121;-68
2022/04/14 09:07:22;;;;;;;14.38;10.20;;;13.80;99.90;;;;;;4995134;28;20052;-67
2022/04/14 09:09:47;;;;;;;16.13;11.27;;;13.80;99.90;;;;;;4996163;28;20046;-67
2022/04/14 09:12:13;;;;;;;14.75;10.75;;;13.90;99.90;;;;;;4995733;28;20052;-67
2022/04/14 09:14:40;;;;;;;15.55;10.70;;;14.00;99.90;;;;;;4995683;28;20044;-67
2022/04/14 09:17:07;;;;;;;16.05;10.77;;;14.00;99.90;;;;;;4993680;28;20050;-67
2022/04/14 09:19:34;;;;;;;15.70;10.70;;;14.10;99.90;;;;;;4995565;28;20046;-67
2022/04/14 09:22:01;;;;;;;15.07;10.85;;;14.20;99.90;;;;;;4994037;28;20050;-67
2022/04/14 09:24:44;;;;;;;15.77;11.05;;;14.20;99.90;;;;;;4995315;28;20082;-67
2022/04/14 09:27:28;;;;;;;17.65;11.73;;;14.20;99.90;;;;;;4994153;28;20054;-67
2022/04/14 09:29:56;;;;;;;15.00;11.00;;;14.30;99.90;;;;;;4994694;28;20047;-67
2022/04/14 09:32:30;;;;;;;14.90;10.07;;;14.40;99.90;;;;;;4993917;28;20086;-67
2022/04/14 09:34:57;;;;;;;16.30;11.77;;;14.50;99.90;;;;;;4993955;28;20125;-67
2022/04/14 09:37:24;;;;;;;14.35;11.18;;;14.60;99.90;;;;;;4994132;28;20102;-69
2022/04/14 09:39:55;;;;;;;15.77;11.35;;;14.70;99.90;;;;;;4995172;28;20046;-67
2022/04/14 09:42:23;;;;;;;15.00;11.13;;;14.90;99.90;;;;;;4994369;28;20090;-68
2022/04/14 09:44:51;;;;;;;15.40;10.73;;;14.90;99.90;;;;;;4994727;28;20050;-68
2022/04/14 09:47:46;;;;;;;12.50;8.27;;;14.90;99.90;;;;;;4995015;28;20054;-67
2022/04/14 09:50:28;;;;;;;14.27;9.55;;;15.00;99.90;;;;;;4982130;28;20398;-68
2022/04/14 09:52:58;;;;;;;12.13;9.10;;;14.90;99.90;;;;;;4994879;28;20046;-69
2022/04/14 09:55:24;;;;;;;13.40;8.38;;;14.90;99.90;;;;;;4994163;28;20085;-68
2022/04/14 09:58:16;;;;;;;11.65;7.93;;;14.90;99.90;;;;;;4994542;28;20046;-69
2022/04/14 10:00:44;;;;;;;11.30;8.25;;;14.80;99.90;;;;;;4994320;28;20121;-68
2022/04/14 10:03:12;;;;;;;12.80;8.73;;;14.80;99.90;;;;;;4993379;28;20556;-67
2022/04/14 10:05:39;;;;;;;13.45;9.10;;;14.80;99.90;;;;;;4995353;28;20053;-68
2022/04/14 10:08:08;;;;;;;14.68;9.60;;;14.80;99.90;;;;;;4994153;28;20054;-67
2022/04/14 10:10:45;;;;;;;11.98;7.78;;;14.90;99.90;;;;;;4993130;28;20104;-69
2022/04/14 10:13:18;;;;;;;10.98;8.00;;;15.00;99.90;;;;;;4994484;28;20137;-68
2022/04/14 10:15:46;;;;;;;10.65;7.00;;;15.20;99.90;;;;;;4994675;28;20047;-68
2022/04/14 10:18:14;;;;;;;9.07;7.22;;;15.30;99.90;;;;;;4994127;28;20046;-69
2022/04/14 10:20:42;;;;;;;8.40;6.45;;;15.30;99.90;;;;;;4993971;28;20050;-68
2022/04/14 10:23:09;;;;;;;10.68;7.68;;;15.40;99.90;;;;;;4993508;28;20050;-67
2022/04/14 10:25:37;;;;;;;8.70;6.22;;;15.40;99.90;;;;;;4994639;28;20293;-69
2022/04/14 10:28:08;;;;;;;9.35;7.00;;;15.50;99.90;;;;;;4994946;28;20085;-68
2022/04/14 10:30:34;;;;;;;8.30;6.05;;;15.50;99.90;;;;;;4994383;28;20172;-68
2022/04/14 10:33:00;;;;;;;8.00;5.47;;;15.50;99.90;;;;;;4993743;28;20048;-69
2022/04/14 10:35:32;;;;;;;6.20;4.60;;;15.50;99.90;;;;;;4994056;28;20046;-68
2022/04/14 10:38:20;;;;;;;8.27;4.53;;;15.60;99.90;;;;;;4993512;28;20042;-68
2022/04/14 10:40:54;;;;;;;5.50;4.38;;;15.60;99.90;;;;;;4993345;28;20490;-67
2022/04/14 10:43:23;;;;;;;7.53;5.10;;;15.70;99.90;;;;;;4994313;28;20050;-67
2022/04/14 10:45:58;;;;;;;8.70;5.68;;;15.70;99.90;;;;;;4992647;28;20093;-68
2022/04/14 10:48:29;;;;;;;8.10;6.03;;;15.70;99.90;;;;;;4994015;28;20391;-68
2022/04/14 10:51:28;;;;;;;7.93;5.80;;;15.70;99.90;;;;;;4992738;28;20056;-68
2022/04/14 10:54:06;;;;;;;7.20;5.40;;;15.50;99.90;;;;;;4986057;28;20054;-68
2022/04/14 10:56:40;;;;;;;8.52;5.88;;;15.50;99.90;;;;;;4994745;28;20213;-68
2022/04/14 10:59:12;;;;;;;8.30;5.78;;;15.60;99.90;;;;;;4992992;28;20046;-68
2022/04/14 11:01:47;;;;;;;9.25;5.57;;;15.70;99.90;;;;;;4993872;28;20129;-69
2022/04/14 11:04:34;;;;;;;5.70;4.05;;;15.80;99.90;;;;;;4992938;28;20536;-67
2022/04/14 11:07:07;;;;;;;5.70;4.07;;;16.00;99.90;;;;;;4994209;28;20042;-69
2022/04/14 11:09:42;;;;;;;4.75;3.13;;;16.10;99.90;;;;;;4993538;28;20505;-69
2022/04/14 11:12:16;;;;;;;3.63;2.40;;;16.20;99.90;;;;;;4993739;28;20054;-69
2022/04/14 11:15:03;;;;;;;4.00;2.80;;;16.30;99.90;;;;;;4993010;28;20126;-68
2022/04/14 11:17:36;;;;;;;5.28;3.40;;;16.50;99.90;;;;;;4993307;28;20038;-70
2022/04/14 11:20:45;;;;;;;5.75;4.38;;;16.60;99.90;;;;;;4994490;28;20124;-69
2022/04/14 11:23:27;;;;;;;8.85;5.07;;;16.70;99.90;;;;;;4993525;28;20050;-69
2022/04/14 11:26:03;;;;;;;6.45;4.50;;;16.70;99.90;;;;;;4994204;28;20072;-68
2022/04/14 11:28:35;;;;;;;5.97;5.00;;;16.50;99.90;;;;;;4994028;28;20108;-72
2022/04/14 11:31:02;;;;;;;6.45;4.78;;;16.40;99.90;;;;;;4993710;28;20046;-68
2022/04/14 11:33:28;;;;;;;5.50;4.75;;;16.30;99.90;;;;;;4993974;28;20046;-68
2022/04/14 11:36:21;;;;;;;5.03;4.53;;;16.30;99.90;;;;;;4993338;28;20046;-69
2022/04/14 11:39:03;;;;;;;6.22;4.57;;;16.30;99.90;;;;;;4990712;28;20482;-69
2022/04/14 11:41:42;;;;;;;10.37;5.80;;;16.40;99.90;;;;;;4993521;28;20133;-70
2022/04/14 11:44:16;;;;;;;9.32;6.60;;;16.40;99.90;;;;;;4993209;28;20077;-69
2022/04/14 11:46:54;;;;;;;9.73;7.07;;;16.30;99.90;;;;;;4993978;28;20050;-67
2022/04/14 11:49:24;;;;;;;10.00;7.35;;;16.20;99.90;;;;;;4993082;28;20088;-68
2022/04/14 11:51:52;;;;;;;11.77;7.25;;;16.20;99.90;;;;;;4993859;28;20046;-67
2022/04/14 11:54:30;;;;;;;8.60;6.38;;;16.20;99.90;;;;;;4993625;28;20121;-68
2022/04/14 11:57:26;;;;;;;8.00;6.07;;;16.20;99.90;;;;;;4993772;28;20486;-68
2022/04/14 11:59:54;;;;;;;6.78;5.10;;;16.20;99.90;;;;;;4981841;28;20065;-69
2022/04/14 12:02:22;;;;;;;8.13;4.97;;;16.30;99.90;;;;;;4992639;28;20050;-69
2022/04/14 12:04:50;;;;;;;6.00;3.97;;;16.20;99.90;;;;;;4993799;28;20057;-68
2022/04/14 12:07:18;;;;;;;5.45;2.90;;;16.20;99.90;;;;;;4993738;28;20046;-69
2022/04/14 12:09:44;;;;;;;4.80;2.55;;;16.20;99.90;;;;;;4994423;28;20049;-69
2022/04/14 12:12:15;;;;;;;4.45;2.55;;;16.20;99.90;;;;;;4993690;28;20049;-69
2022/04/14 12:14:52;;;;;;;7.47;3.30;;;16.20;99.90;;;;;;4996317;28;20073;-69
2022/04/14 12:17:23;;;;;;;6.80;3.38;;;16.30;99.90;;;;;;4998252;28;20371;-68
2022/04/14 12:19:53;;;;;;;4.45;3.30;;;16.30;99.90;;;;;;4998040;28;20047;-69
2022/04/14 12:22:20;;;;;;;4.60;2.47;;;16.90;99.90;;;;;;4996871;28;20047;-69
2022/04/14 12:24:51;;;;;;;6.38;2.40;;;16.40;99.90;;;;;;4997960;28;20050;-68
2022/04/14 12:27:23;;;;;;;4.70;2.35;;;16.50;99.90;;;;;;4996794;28;20101;-69
2022/04/14 12:29:52;;;;;;;4.60;3.22;;;16.60;99.90;;;;;;4997786;28;20102;-69
2022/04/14 12:32:18;;;;;;;4.63;2.90;;;16.60;99.90;;;;;;4996894;28;20049;-69
2022/04/14 12:34:45;;;;;;;5.47;3.03;;;16.60;99.90;;;;;;4996912;28;20086;-69
2022/04/14 12:37:15;;;;;;;5.90;3.33;;;16.70;99.90;;;;;;4998348;28;20058;-69
2022/04/14 12:39:57;;;;;;;6.32;3.13;;;16.70;99.90;;;;;;4997078;28;20042;-70
2022/04/14 12:42:32;;;;;;;6.77;3.97;;;16.70;99.90;;;;;;4996746;28;20060;-70